createdAt,value
2022-09-23T00:00:46.727Z,7.25
2022-09-23T00:03:14.638Z,4.32
2022-09-23T00:05:41.698Z,3.83
2022-09-23T00:08:09.266Z,3.75
2022-09-23T00:10:37.919Z,4.43
2022-09-23T00:13:05.752Z,3.55
2022-09-23T00:15:34.082Z,3.60
2022-09-23T00:18:01.151Z,4.72
2022-09-23T00:20:28.370Z,4.22
2022-09-23T00:22:57.737Z,3.60
2022-09-23T00:25:25.189Z,4.00
2022-09-23T00:27:53.490Z,8.25
2022-09-23T00:30:20.639Z,4.43
2022-09-23T00:32:47.690Z,4.53
2022-09-23T00:35:14.761Z,7.03
2022-09-23T00:37:41.885Z,11.25
2022-09-23T00:40:09.215Z,4.90
2022-09-23T00:42:36.294Z,3.67
2022-09-23T00:45:04.330Z,5.03
2022-09-23T00:47:48.398Z,4.30
2022-09-23T00:50:30.750Z,4.15
2022-09-23T00:53:00.141Z,5.13
2022-09-23T00:55:47.481Z,4.13
2022-09-23T00:58:16.048Z,5.20
2022-09-23T01:00:43.295Z,3.95
2022-09-23T01:03:11.958Z,4.00
2022-09-23T01:05:40.114Z,4.47
2022-09-23T01:08:08.003Z,6.32
2022-09-23T01:10:40.196Z,3.92
2022-09-23T01:13:10.279Z,4.55
2022-09-23T01:15:37.374Z,4.18
2022-09-23T01:18:23.209Z,4.07
2022-09-23T01:21:08.229Z,5.15
2022-09-23T01:23:44.445Z,3.85
2022-09-23T01:26:50.038Z,5.82
2022-09-23T01:29:25.586Z,3.72
2022-09-23T01:31:52.639Z,4.35
2022-09-23T01:34:28.274Z,5.07
2022-09-23T01:36:59.436Z,4.47
2022-09-23T01:39:42.821Z,4.10
2022-09-23T01:42:18.959Z,5.20
2022-09-23T01:44:52.141Z,4.70
2022-09-23T01:47:19.185Z,5.35
2022-09-23T01:49:49.130Z,4.68
2022-09-23T01:52:20.555Z,4.43
2022-09-23T01:54:54.141Z,4.30
2022-09-23T01:57:25.943Z,4.50
2022-09-23T01:59:55.690Z,5.05
2022-09-23T02:02:34.948Z,4.80
2022-09-23T02:05:09.662Z,4.63
2022-09-23T02:07:50.291Z,5.55
2022-09-23T02:10:17.369Z,4.43
2022-09-23T02:12:46.865Z,5.25
2022-09-23T02:15:18.410Z,4.57
2022-09-23T02:17:52.201Z,5.18
2022-09-23T02:20:42.267Z,4.85
2022-09-23T02:23:13.161Z,6.57
2022-09-23T02:25:46.031Z,7.80
2022-09-23T02:28:15.562Z,8.15
2022-09-23T02:30:47.263Z,10.02
2022-09-23T02:33:43.739Z,7.82
2022-09-23T02:36:14.957Z,6.93
2022-09-23T02:38:53.579Z,6.88
2022-09-23T02:41:23.319Z,5.18
2022-09-23T02:43:54.247Z,5.97
2022-09-23T02:46:22.157Z,4.53
2022-09-23T02:49:01.511Z,7.38
2022-09-23T02:51:28.963Z,4.45
2022-09-23T02:53:57.206Z,4.07
2022-09-23T02:56:24.448Z,6.55
2022-09-23T02:58:55.364Z,7.78
2022-09-23T03:01:41.065Z,7.18
2022-09-23T03:04:22.524Z,5.03
2022-09-23T03:06:52.638Z,5.20
2022-09-23T03:09:32.556Z,5.75
2022-09-23T03:12:21.541Z,5.75
2022-09-23T03:14:51.630Z,4.90
2022-09-23T03:17:21.387Z,5.13
2022-09-23T03:19:54.398Z,7.07
2022-09-23T03:22:28.716Z,5.47
2022-09-23T03:24:59.244Z,4.85
2022-09-23T03:27:29.336Z,6.03
2022-09-23T03:29:56.994Z,5.93
2022-09-23T03:32:27.439Z,6.95
2022-09-23T03:34:55.779Z,6.78
2022-09-23T03:37:26.310Z,4.75
2022-09-23T03:40:08.471Z,4.93
2022-09-23T03:42:36.726Z,5.43
2022-09-23T03:45:08.937Z,5.38
2022-09-23T03:47:36.870Z,5.05
2022-09-23T03:50:04.043Z,4.88
2022-09-23T03:52:31.286Z,5.35
2022-09-23T03:54:58.446Z,6.20
2022-09-23T03:57:25.644Z,7.07
2022-09-23T03:59:52.900Z,5.45
2022-09-23T04:02:20.600Z,4.95
2022-09-23T04:04:47.815Z,5.50
2022-09-23T04:07:15.335Z,4.78
2022-09-23T04:09:42.591Z,4.50
2022-09-23T04:12:13.106Z,4.30
2022-09-23T04:14:40.336Z,4.40
2022-09-23T04:17:07.486Z,4.82
2022-09-23T04:19:34.831Z,4.65
2022-09-23T04:22:01.924Z,5.25
2022-09-23T04:24:29.226Z,5.72
2022-09-23T04:26:56.807Z,5.60
2022-09-23T04:29:24.595Z,4.55
2022-09-23T04:31:52.231Z,5.40
2022-09-23T04:34:19.887Z,6.47
2022-09-23T04:36:47.645Z,4.68
2022-09-23T04:39:15.546Z,4.82
2022-09-23T04:41:43.086Z,6.97
2022-09-23T04:44:11.513Z,5.68
2022-09-23T04:46:39.301Z,6.25
2022-09-23T04:49:06.889Z,4.47
2022-09-23T04:51:35.372Z,11.13
2022-09-23T04:54:02.749Z,13.32
2022-09-23T04:56:34.119Z,22.50
2022-09-23T04:59:04.370Z,26.13
2022-09-23T05:01:34.484Z,21.85
2022-09-23T05:04:03.429Z,25.65
2022-09-23T05:06:31.535Z,22.95
2022-09-23T05:08:59.460Z,18.23
2022-09-23T05:11:27.021Z,14.77
2022-09-23T05:13:54.756Z,12.10
2022-09-23T05:16:25.784Z,8.60
2022-09-23T05:18:53.980Z,7.85
2022-09-23T05:21:22.348Z,8.02
2022-09-23T05:23:51.426Z,6.38
2022-09-23T05:26:18.527Z,6.00
2022-09-23T05:28:45.619Z,9.13
2022-09-23T05:31:18.839Z,4.75
2022-09-23T05:33:54.110Z,7.25
2022-09-23T05:36:24.553Z,8.55
2022-09-23T05:38:52.612Z,6.70
2022-09-23T05:41:21.403Z,13.20
2022-09-23T05:43:48.495Z,5.07
2022-09-23T05:46:18.292Z,5.78
2022-09-23T05:48:47.148Z,6.13
2022-09-23T05:51:15.381Z,6.97
2022-09-23T05:53:45.545Z,6.95
2022-09-23T05:56:16.635Z,5.20
2022-09-23T05:58:44.012Z,5.05
2022-09-23T06:01:12.093Z,6.30
2022-09-23T06:03:39.307Z,4.90
2022-09-23T06:06:06.925Z,6.72
2022-09-23T06:08:34.526Z,6.80
2022-09-23T06:11:07.502Z,16.73
2022-09-23T06:13:35.558Z,6.00
2022-09-23T06:16:02.955Z,6.03
2022-09-23T06:18:30.055Z,13.10
2022-09-23T06:21:00.588Z,5.55
2022-09-23T06:23:27.707Z,6.68
2022-09-23T06:25:54.872Z,7.70
2022-09-23T06:28:22.744Z,5.00
2022-09-23T06:30:50.571Z,5.07
2022-09-23T06:33:23.401Z,5.90
2022-09-23T06:36:00.168Z,6.68
2022-09-23T06:38:27.810Z,6.18
2022-09-23T06:40:55.870Z,5.25
2022-09-23T06:43:23.545Z,5.93
2022-09-23T06:45:57.416Z,5.00
2022-09-23T06:48:27.037Z,5.47
2022-09-23T06:50:54.461Z,6.70
2022-09-23T06:53:23.685Z,12.75
2022-09-23T06:56:02.483Z,5.85
2022-09-23T06:58:30.451Z,5.55
2022-09-23T07:01:18.031Z,7.28
2022-09-23T07:03:46.411Z,6.05
2022-09-23T07:06:13.673Z,5.22
2022-09-23T07:08:43.143Z,5.43
2022-09-23T07:11:12.317Z,5.95
2022-09-23T07:13:41.425Z,5.00
2022-09-23T07:16:09.360Z,4.47
2022-09-23T07:18:37.727Z,6.50
2022-09-23T07:21:08.407Z,4.80
2022-09-23T07:23:37.150Z,4.90
2022-09-23T07:26:04.621Z,6.22
2022-09-23T07:28:32.256Z,5.45
2022-09-23T07:31:03.215Z,5.15
2022-09-23T07:33:33.044Z,5.05
2022-09-23T07:36:00.895Z,5.25
2022-09-23T07:38:30.193Z,7.32
2022-09-23T07:41:10.894Z,6.68
2022-09-23T07:43:39.677Z,4.88
2022-09-23T07:46:08.534Z,5.80
2022-09-23T07:51:10.601Z,5.07
2022-09-23T07:53:37.847Z,5.03
2022-09-23T07:56:06.534Z,6.10
2022-09-23T07:58:34.351Z,4.28
2022-09-23T08:01:09.011Z,7.70
2022-09-23T08:03:36.410Z,7.05
2022-09-23T08:06:07.967Z,5.28
2022-09-23T08:08:35.673Z,5.55
2022-09-23T08:11:06.902Z,6.82
2022-09-23T08:13:34.220Z,5.45
2022-09-23T08:16:01.511Z,4.68
2022-09-23T08:18:28.671Z,6.63
2022-09-23T08:20:55.815Z,12.70
2022-09-23T08:23:23.110Z,6.97
2022-09-23T08:26:01.265Z,10.52
2022-09-23T08:28:28.873Z,12.68
2022-09-23T08:30:56.044Z,7.28
2022-09-23T08:33:24.099Z,9.80
2022-09-23T08:35:51.751Z,7.60
2022-09-23T08:38:19.521Z,8.05
2022-09-23T08:40:49.029Z,7.05
2022-09-23T08:43:27.235Z,6.40
2022-09-23T08:45:56.126Z,7.72
2022-09-23T08:50:52.875Z,7.60
2022-09-23T08:53:24.565Z,5.68
2022-09-23T08:55:53.555Z,5.63
2022-09-23T08:58:26.911Z,4.57
2022-09-23T09:01:05.159Z,7.43
2022-09-23T09:03:37.686Z,4.85
2022-09-23T09:06:04.837Z,4.68
2022-09-23T09:08:36.209Z,6.55
2022-09-23T09:11:03.858Z,4.00
2022-09-23T09:13:31.286Z,3.90
2022-09-23T09:16:15.525Z,6.07
2022-09-23T09:18:53.356Z,5.15
2022-09-23T09:21:25.134Z,3.92
2022-09-23T09:23:56.675Z,4.53
2022-09-23T09:26:32.733Z,4.10
2022-09-23T09:29:23.382Z,5.13
2022-09-23T09:31:50.743Z,6.85
2022-09-23T09:34:24.956Z,4.03
2022-09-23T09:36:52.036Z,4.47
2022-09-23T09:39:22.893Z,6.55
2022-09-23T09:41:58.500Z,6.25
2022-09-23T09:44:41.499Z,4.05
2022-09-23T09:47:28.714Z,6.75
2022-09-23T09:50:05.982Z,4.38
2022-09-23T09:52:33.274Z,5.45
2022-09-23T09:55:15.471Z,4.35
2022-09-23T09:57:44.116Z,5.20
2022-09-23T10:00:40.210Z,6.20
2022-09-23T10:03:13.811Z,5.35
2022-09-23T10:05:47.140Z,3.70
2022-09-23T10:08:34.869Z,6.00
2022-09-23T10:11:08.124Z,5.18
2022-09-23T10:13:36.180Z,5.50
2022-09-23T10:16:04.046Z,5.07
2022-09-23T10:18:50.034Z,4.05
2022-09-23T10:21:18.677Z,4.40
2022-09-23T10:23:47.206Z,5.22
2022-09-23T10:26:18.452Z,6.22
2022-09-23T10:28:45.574Z,7.03
2022-09-23T10:31:14.012Z,4.13
2022-09-23T10:33:51.181Z,4.75
2022-09-23T10:36:18.996Z,5.85
2022-09-23T10:38:48.593Z,4.05
2022-09-23T10:41:42.902Z,6.28
2022-09-23T10:44:49.729Z,5.72
2022-09-23T10:47:34.078Z,7.45
2022-09-23T10:50:03.280Z,4.38
2022-09-23T10:52:41.870Z,4.53
2022-09-23T10:55:21.017Z,5.45
2022-09-23T10:57:58.524Z,6.93
2022-09-23T11:00:28.571Z,4.88
2022-09-23T11:03:32.150Z,3.80
2022-09-23T11:06:04.904Z,5.43
2022-09-23T11:08:43.837Z,5.13
2022-09-23T11:11:21.491Z,7.35
2022-09-23T11:13:58.986Z,5.38
2022-09-23T11:16:26.115Z,5.97
2022-09-23T11:19:25.649Z,6.85
2022-09-23T11:24:19.701Z,7.40
2022-09-23T11:26:46.808Z,8.98
2022-09-23T11:29:16.447Z,7.57
2022-09-23T11:31:47.364Z,13.50
2022-09-23T11:34:16.168Z,10.27
2022-09-23T11:36:47.199Z,10.40
2022-09-23T11:39:22.037Z,8.75
2022-09-23T11:41:50.543Z,8.73
2022-09-23T11:44:26.351Z,8.48
2022-09-23T11:46:56.639Z,12.63
2022-09-23T11:49:42.296Z,8.98
2022-09-23T11:52:13.025Z,11.77
2022-09-23T11:54:50.211Z,7.85
2022-09-23T11:57:41.172Z,8.90
2022-09-23T12:00:17.185Z,10.77
2022-09-23T12:03:04.100Z,7.18
2022-09-23T12:08:07.980Z,4.88
2022-09-23T12:10:58.009Z,6.97
2022-09-23T12:13:34.805Z,5.68
2022-09-23T12:16:01.914Z,6.57
2022-09-23T12:18:39.510Z,6.70
2022-09-23T12:21:06.595Z,6.72
2022-09-23T12:23:57.802Z,6.65
2022-09-23T12:26:26.234Z,12.00
2022-09-23T12:28:55.504Z,4.97
2022-09-23T12:31:37.565Z,7.68
2022-09-23T12:34:47.910Z,7.45
2022-09-23T12:37:23.203Z,8.43
2022-09-23T12:39:50.641Z,7.80
2022-09-23T12:42:19.132Z,8.32
2022-09-23T12:44:47.703Z,6.43
2022-09-23T12:47:21.134Z,7.10
2022-09-23T12:49:50.802Z,8.02
2022-09-23T12:52:17.922Z,10.95
2022-09-23T12:54:48.653Z,6.30
2022-09-23T12:57:15.761Z,5.40
2022-09-23T12:59:53.380Z,5.80
2022-09-23T13:02:28.383Z,6.45
2022-09-23T13:07:43.689Z,6.90
2022-09-23T13:10:37.755Z,6.45
2022-09-23T13:13:06.826Z,5.10
2022-09-23T13:15:35.309Z,5.65
2022-09-23T13:18:24.072Z,5.70
2022-09-23T13:20:52.223Z,5.15
2022-09-23T13:23:23.820Z,8.90
2022-09-23T13:25:51.976Z,5.97
2022-09-23T13:28:31.374Z,7.22
2022-09-23T13:30:58.648Z,6.22
2022-09-23T13:33:36.340Z,6.30
2022-09-23T13:36:04.347Z,7.35
2022-09-23T13:38:34.992Z,7.97
2022-09-23T13:41:04.715Z,7.00
2022-09-23T13:43:38.941Z,7.22
2022-09-23T13:46:13.378Z,6.82
2022-09-23T13:48:41.529Z,5.47
2022-09-23T13:51:12.777Z,6.55
2022-09-23T13:53:39.916Z,6.30
2022-09-23T13:56:08.702Z,7.05
2022-09-23T13:58:36.583Z,5.65
2022-09-23T14:01:06.641Z,5.18
2022-09-23T14:03:38.184Z,4.28
2022-09-23T14:06:11.034Z,5.60
2022-09-23T14:08:44.733Z,6.80
2022-09-23T14:11:19.287Z,5.85
2022-09-23T14:13:47.090Z,7.20
2022-09-23T14:16:15.454Z,6.57
2022-09-23T14:18:52.309Z,4.78
2022-09-23T14:21:45.472Z,4.50
2022-09-23T14:24:15.560Z,7.13
2022-09-23T14:26:43.804Z,8.25
2022-09-23T14:29:14.945Z,6.70
2022-09-23T14:31:42.334Z,5.78
2022-09-23T14:34:29.379Z,5.65
2022-09-23T14:37:15.063Z,4.15
2022-09-23T14:39:42.230Z,6.82
2022-09-23T14:42:10.197Z,5.78
2022-09-23T14:44:38.228Z,5.00
2022-09-23T14:47:11.625Z,5.63
2022-09-23T14:49:59.373Z,16.75
2022-09-23T14:52:26.525Z,5.00
2022-09-23T14:54:53.635Z,6.82
2022-09-23T14:57:23.833Z,7.45
2022-09-23T14:59:53.730Z,9.38
2022-09-23T15:02:34.024Z,6.82
2022-09-23T15:05:08.909Z,5.72
2022-09-23T15:07:37.573Z,7.10
2022-09-23T15:10:09.695Z,10.18
2022-09-23T15:12:37.035Z,8.90
2022-09-23T15:15:04.291Z,12.15
2022-09-23T15:17:33.740Z,10.95
2022-09-23T15:20:02.432Z,9.52
2022-09-23T15:22:29.747Z,9.73
2022-09-23T15:25:12.027Z,7.65
2022-09-23T15:27:39.170Z,8.15
2022-09-23T15:30:19.376Z,9.23
2022-09-23T15:32:46.935Z,14.27
2022-09-23T15:35:26.801Z,12.88
2022-09-23T15:37:56.117Z,13.43
2022-09-23T15:40:30.840Z,13.57
2022-09-23T15:42:58.883Z,12.65
2022-09-23T15:45:30.648Z,16.75
2022-09-23T15:48:00.803Z,14.75
2022-09-23T15:50:28.753Z,17.90
2022-09-23T15:52:56.272Z,15.18
2022-09-23T15:55:24.171Z,14.38
2022-09-23T15:57:51.440Z,11.73
2022-09-23T16:00:18.748Z,15.00
2022-09-23T16:02:47.048Z,12.85
2022-09-23T16:05:18.397Z,13.05
2022-09-23T16:07:48.075Z,12.82
2022-09-23T16:10:15.836Z,8.90
2022-09-23T16:12:43.587Z,14.32
2022-09-23T16:15:29.787Z,12.43
2022-09-23T16:17:57.153Z,9.90
2022-09-23T16:20:26.241Z,8.63
2022-09-23T16:23:13.711Z,13.20
2022-09-23T16:25:40.784Z,14.30
2022-09-23T16:28:07.869Z,10.52
2022-09-23T16:30:35.117Z,9.63
2022-09-23T16:33:02.219Z,12.55
2022-09-23T16:35:33.485Z,7.30
2022-09-23T16:38:00.754Z,9.43
2022-09-23T16:40:29.049Z,10.27
2022-09-23T16:42:58.293Z,11.35
2022-09-23T16:45:25.444Z,10.90
2022-09-23T16:47:52.700Z,12.20
2022-09-23T16:50:22.681Z,8.43
2022-09-23T16:52:51.748Z,7.82
2022-09-23T16:55:18.869Z,9.20
2022-09-23T16:57:45.979Z,11.85
2022-09-23T17:00:33.862Z,12.63
2022-09-23T17:03:20.123Z,12.30
2022-09-23T17:05:47.594Z,9.20
2022-09-23T17:08:15.543Z,8.25
2022-09-23T17:10:46.229Z,10.18
2022-09-23T17:13:17.660Z,7.78
2022-09-23T17:15:44.790Z,8.48
2022-09-23T17:18:12.728Z,7.85
2022-09-23T17:20:41.775Z,8.27
2022-09-23T17:23:08.990Z,12.63
2022-09-23T17:25:36.120Z,7.47
2022-09-23T17:28:03.285Z,7.68
2022-09-23T17:30:30.483Z,9.93
2022-09-23T17:32:58.877Z,9.98
2022-09-23T17:35:26.313Z,8.43
2022-09-23T17:37:54.402Z,9.82
2022-09-23T17:40:21.639Z,6.78
2022-09-23T17:42:50.262Z,9.85
2022-09-23T17:45:17.326Z,11.27
2022-09-23T17:47:51.271Z,13.10
2022-09-23T17:50:18.337Z,10.23
2022-09-23T17:52:45.439Z,9.98
2022-09-23T17:55:12.563Z,11.82
2022-09-23T17:57:39.689Z,10.05
2022-09-23T18:00:07.464Z,9.63
2022-09-23T18:02:34.586Z,10.27
2022-09-23T18:05:01.830Z,7.70
2022-09-23T18:07:28.940Z,13.48
2022-09-23T18:09:56.028Z,7.95
2022-09-23T18:12:23.186Z,9.40
2022-09-23T18:14:50.290Z,8.35
2022-09-23T18:17:17.405Z,8.65
2022-09-23T18:19:49.102Z,8.68
2022-09-23T18:22:16.238Z,8.90
2022-09-23T18:24:43.965Z,9.35
2022-09-23T18:27:11.029Z,7.45
2022-09-23T18:29:38.135Z,8.85
2022-09-23T18:32:05.330Z,8.52
2022-09-23T18:34:32.545Z,8.93
2022-09-23T18:37:00.064Z,9.93
2022-09-23T18:39:27.250Z,9.27
2022-09-23T18:41:54.840Z,7.35
2022-09-23T18:44:23.292Z,7.40
2022-09-23T18:46:50.374Z,13.20
2022-09-23T18:49:36.036Z,7.43
2022-09-23T18:52:05.452Z,8.18
2022-09-23T18:54:32.610Z,7.43
2022-09-23T18:56:59.811Z,7.97
2022-09-23T18:59:29.272Z,6.57
2022-09-23T19:01:56.823Z,8.48
2022-09-23T19:04:25.020Z,8.52
2022-09-23T19:06:53.586Z,7.25
2022-09-23T19:09:20.797Z,9.65
2022-09-23T19:11:51.617Z,7.45
2022-09-23T19:14:18.825Z,6.93
2022-09-23T19:16:48.935Z,6.80
2022-09-23T19:19:16.119Z,6.60
2022-09-23T19:21:43.238Z,7.85
2022-09-23T19:24:14.387Z,10.23
2022-09-23T19:26:42.035Z,6.25
2022-09-23T19:29:13.122Z,6.93
2022-09-23T19:31:41.819Z,7.80
2022-09-23T19:34:12.530Z,8.93
2022-09-23T19:36:40.755Z,8.77
2022-09-23T19:39:09.108Z,6.43
2022-09-23T19:41:36.331Z,9.13
2022-09-23T19:44:07.294Z,6.60
2022-09-23T19:46:40.654Z,7.25
2022-09-23T19:49:08.323Z,6.93
2022-09-23T19:51:35.470Z,7.00
2022-09-23T19:54:02.949Z,7.75
2022-09-23T19:56:30.411Z,7.30
2022-09-23T19:58:58.281Z,6.93
2022-09-23T20:01:26.579Z,7.75
2022-09-23T20:03:55.152Z,6.43
2022-09-23T20:06:22.814Z,9.65
2022-09-23T20:08:50.441Z,8.90
2022-09-23T20:11:18.764Z,6.70
2022-09-23T20:13:47.187Z,8.35
2022-09-23T20:16:17.985Z,7.07
2022-09-23T20:18:46.571Z,6.82
2022-09-23T20:21:15.125Z,6.45
2022-09-23T20:23:42.573Z,6.80
2022-09-23T20:26:28.854Z,7.32
2022-09-23T20:28:55.997Z,8.02
2022-09-23T20:31:23.839Z,8.23
2022-09-23T20:33:57.262Z,11.40
2022-09-23T20:36:25.764Z,11.30
2022-09-23T20:38:56.368Z,7.30
2022-09-23T20:41:23.467Z,6.97
2022-09-23T20:43:54.332Z,7.90
2022-09-23T20:46:24.607Z,8.18
2022-09-23T20:48:52.069Z,10.15
2022-09-23T20:51:19.228Z,8.20
2022-09-23T20:53:50.738Z,11.15
2022-09-23T20:56:19.921Z,9.73
2022-09-23T20:58:48.467Z,6.93
2022-09-23T21:01:15.986Z,10.95
2022-09-23T21:03:45.943Z,11.68
2022-09-23T21:06:14.433Z,13.70
2022-09-23T21:08:41.959Z,9.02
2022-09-23T21:11:10.909Z,9.32
2022-09-23T21:13:38.035Z,10.45
2022-09-23T21:16:06.561Z,10.07
2022-09-23T21:18:35.128Z,7.88
2022-09-23T21:21:02.471Z,8.68
2022-09-23T21:23:30.906Z,10.38
2022-09-23T21:26:19.350Z,10.18
2022-09-23T21:28:50.421Z,12.90
2022-09-23T21:31:25.972Z,10.93
2022-09-23T21:33:56.716Z,12.65
2022-09-23T21:36:24.755Z,10.18
2022-09-23T21:38:52.365Z,10.88
2022-09-23T21:41:20.096Z,13.55
2022-09-23T21:43:48.668Z,13.10
2022-09-23T21:46:17.384Z,9.35
2022-09-23T21:48:44.582Z,11.10
2022-09-23T21:51:14.078Z,10.60
2022-09-23T21:53:41.823Z,9.82
2022-09-23T21:56:10.334Z,10.05
2022-09-23T21:58:38.460Z,7.47
2022-09-23T22:01:09.805Z,7.75
2022-09-23T22:03:37.272Z,7.55
2022-09-23T22:06:08.692Z,9.43
2022-09-23T22:08:37.121Z,9.55
2022-09-23T22:11:13.969Z,8.32
2022-09-23T22:13:41.994Z,9.45
2022-09-23T22:16:09.102Z,7.53
2022-09-23T22:18:36.306Z,8.98
2022-09-23T22:21:03.469Z,8.43
2022-09-23T22:23:30.573Z,8.10
2022-09-23T22:26:02.782Z,7.97
2022-09-23T22:28:51.247Z,8.73
2022-09-23T22:31:37.292Z,7.82
2022-09-23T22:34:04.587Z,7.75
2022-09-23T22:36:31.778Z,7.53
2022-09-23T22:39:00.641Z,9.23
2022-09-23T22:43:54.763Z,8.32
2022-09-23T22:46:25.201Z,8.00
2022-09-23T22:48:53.373Z,7.18
2022-09-23T22:51:22.216Z,9.00
2022-09-23T22:53:49.824Z,7.70
2022-09-23T22:56:16.957Z,7.05
2022-09-23T22:58:44.661Z,7.38
2022-09-23T23:01:11.852Z,8.45
2022-09-23T23:03:40.523Z,9.05
2022-09-23T23:06:08.780Z,9.55
2022-09-23T23:08:37.068Z,12.93
2022-09-23T23:11:06.018Z,8.35
2022-09-23T23:13:33.343Z,8.85
2022-09-23T23:16:04.695Z,8.18
2022-09-23T23:18:35.690Z,8.27
2022-09-23T23:21:07.239Z,8.32
2022-09-23T23:23:41.740Z,9.07
2022-09-23T23:26:13.274Z,13.40
2022-09-23T23:28:40.991Z,8.55
2022-09-23T23:31:09.635Z,8.75
2022-09-23T23:33:37.133Z,8.98
2022-09-23T23:36:05.562Z,10.30
2022-09-23T23:38:38.003Z,16.48
2022-09-23T23:41:10.990Z,10.07
2022-09-23T23:43:41.776Z,9.20
2022-09-23T23:46:09.329Z,9.27
2022-09-23T23:48:37.174Z,11.18
2022-09-23T23:51:05.799Z,8.57
2022-09-23T23:53:37.204Z,8.75
2022-09-23T23:56:05.513Z,8.32
2022-09-23T23:58:32.599Z,6.93
